Southwood, Indiana
Current Conditions -  °F | °C
As of 8:53 PM on Sunday 25 Jan 2015 (Local Time) from KHUF Reporting Station
Overcast Overcast  
Wind Chill: 18°   Ceiling: 1000
Heat Index: 30°   Visibility: 9mi
Dew Point: 26°   Wind: 18mph
Humidity: 85%   Direction: 10°N
Pressure: 29.81"   Gusts: 26mph
Location:  39.3587°N, 87.4056°W
Report Text: KHUF 260153Z 01016G23KT 9SM OVC010 M01/M03 A2981 RMK AO2 SLP098 I1001 T10111033
Loading
Personal Weather Stations






























Interactive Weather Map New forecast layout! Learn more

10-Day Weather Forecast

Advertisements
Track Severe Weather on mobile